createdAt,value
2019-01-24T00:00:41.072Z,25.70
2019-01-24T00:03:08.359Z,23.70
2019-01-24T00:05:35.610Z,25.30
2019-01-24T00:08:02.960Z,24.63
2019-01-24T00:10:30.241Z,25.03
2019-01-24T00:12:57.497Z,23.63
2019-01-24T00:15:24.767Z,25.20
2019-01-24T00:17:52.056Z,24.03
2019-01-24T00:20:19.306Z,24.90
2019-01-24T00:22:46.586Z,25.73
2019-01-24T00:25:14.209Z,23.00
2019-01-24T00:27:41.542Z,24.37
2019-01-24T00:30:12.651Z,25.40
2019-01-24T00:32:39.930Z,26.50
2019-01-24T00:35:07.797Z,23.77
2019-01-24T00:37:35.077Z,24.43
2019-01-24T00:40:02.401Z,27.37
2019-01-24T00:42:29.943Z,26.97
2019-01-24T00:44:57.193Z,28.40
2019-01-24T00:47:24.724Z,27.27
2019-01-24T00:49:52.226Z,29.23
2019-01-24T00:52:19.507Z,27.97
2019-01-24T00:54:46.767Z,29.33
2019-01-24T00:57:14.034Z,27.37
2019-01-24T00:59:41.290Z,28.47
2019-01-24T01:02:08.571Z,29.27
2019-01-24T01:04:36.101Z,28.70
2019-01-24T01:07:03.698Z,29.13
2019-01-24T01:09:30.978Z,27.00
2019-01-24T01:11:58.257Z,28.00
2019-01-24T01:14:25.578Z,31.13
2019-01-24T01:16:53.099Z,33.93
2019-01-24T01:19:20.645Z,29.97
2019-01-24T01:21:48.251Z,31.70
2019-01-24T01:24:15.583Z,30.47
2019-01-24T01:26:42.870Z,30.50
2019-01-24T01:29:10.191Z,29.57
2019-01-24T01:31:37.472Z,29.10
2019-01-24T01:34:04.787Z,31.37
2019-01-24T01:36:32.355Z,32.47
2019-01-24T01:38:59.863Z,33.10
2019-01-24T01:41:27.109Z,33.93
2019-01-24T01:43:54.401Z,32.57
2019-01-24T01:46:21.728Z,32.97
2019-01-24T01:48:49.245Z,34.60
2019-01-24T01:51:16.761Z,33.93
2019-01-24T01:53:44.039Z,34.73
2019-01-24T01:56:11.290Z,32.40
2019-01-24T01:58:38.842Z,33.07
2019-01-24T02:01:06.266Z,34.77
2019-01-24T02:03:33.546Z,35.07
2019-01-24T02:06:00.802Z,33.63
2019-01-24T02:08:28.329Z,36.37
2019-01-24T02:10:55.873Z,37.43
2019-01-24T02:13:23.211Z,36.17
2019-01-24T02:15:50.741Z,35.60
2019-01-24T02:18:18.243Z,37.13
2019-01-24T02:20:45.531Z,34.07
2019-01-24T02:23:12.808Z,36.23
2019-01-24T02:25:40.314Z,39.23
2019-01-24T02:28:07.593Z,37.63
2019-01-24T02:30:34.847Z,38.33
2019-01-24T02:33:02.214Z,37.83
2019-01-24T02:35:29.732Z,35.93
2019-01-24T02:37:56.990Z,37.67
2019-01-24T02:40:24.277Z,37.80
2019-01-24T02:42:51.526Z,36.47
2019-01-24T02:45:19.977Z,38.20
2019-01-24T02:47:47.550Z,35.67
2019-01-24T02:50:15.706Z,38.53
2019-01-24T02:52:42.957Z,40.70
2019-01-24T02:55:11.301Z,37.00
2019-01-24T02:57:38.803Z,38.53
2019-01-24T03:00:08.107Z,35.17
2019-01-24T03:02:35.632Z,38.37
2019-01-24T03:05:03.254Z,35.57
2019-01-24T03:07:30.510Z,38.97
2019-01-24T03:09:57.802Z,39.87
2019-01-24T03:12:25.298Z,38.17
2019-01-24T03:14:52.561Z,37.23
2019-01-24T03:17:19.842Z,37.87
2019-01-24T03:19:47.128Z,39.10
2019-01-24T03:22:14.411Z,42.10
2019-01-24T03:24:41.915Z,35.80
2019-01-24T03:27:09.441Z,39.40
2019-01-24T03:29:36.974Z,35.43
2019-01-24T03:32:04.246Z,36.87
2019-01-24T03:34:31.750Z,38.47
2019-01-24T03:36:59.281Z,38.47
2019-01-24T03:39:26.538Z,35.93
2019-01-24T03:41:54.071Z,39.70
2019-01-24T03:44:21.328Z,41.03
2019-01-24T03:46:48.687Z,38.03
2019-01-24T03:49:16.194Z,42.30
2019-01-24T03:51:43.478Z,41.20
2019-01-24T03:54:10.727Z,39.73
2019-01-24T03:56:38.265Z,41.03
2019-01-24T03:59:05.538Z,41.67
2019-01-24T04:01:32.794Z,38.47
2019-01-24T04:04:00.399Z,36.73
2019-01-24T04:06:27.721Z,40.27
2019-01-24T04:08:55.087Z,41.10
2019-01-24T04:11:22.338Z,42.57
2019-01-24T04:13:49.616Z,42.73
2019-01-24T04:16:16.889Z,41.87
2019-01-24T04:18:44.149Z,43.67
2019-01-24T04:21:11.417Z,39.47
2019-01-24T04:23:38.950Z,40.77
2019-01-24T04:26:06.473Z,40.00
2019-01-24T04:28:33.733Z,40.80
2019-01-24T04:31:01.154Z,36.77
2019-01-24T04:33:28.438Z,38.53
2019-01-24T04:35:55.952Z,39.80
2019-01-24T04:38:23.252Z,37.53
2019-01-24T04:40:50.497Z,39.43
2019-01-24T04:43:17.774Z,41.70
2019-01-24T04:45:45.030Z,41.33
2019-01-24T04:48:12.575Z,39.97
2019-01-24T04:50:40.111Z,38.70
2019-01-24T04:53:07.400Z,40.97
2019-01-24T04:55:34.650Z,39.57
2019-01-24T04:58:02.183Z,39.73
2019-01-24T05:00:29.849Z,41.10
2019-01-24T05:02:57.433Z,41.53
2019-01-24T05:05:27.948Z,41.43
2019-01-24T05:07:54.080Z,39.57
2019-01-24T05:10:21.419Z,41.50
2019-01-24T05:12:48.701Z,41.77
2019-01-24T05:15:16.294Z,38.43
2019-01-24T05:17:43.719Z,41.53
2019-01-24T05:20:12.306Z,42.43
2019-01-24T05:22:39.857Z,41.63
2019-01-24T05:25:08.899Z,42.23
2019-01-24T05:27:36.426Z,41.40
2019-01-24T05:30:05.228Z,41.47
2019-01-24T05:32:32.505Z,39.17
2019-01-24T05:34:59.754Z,42.10
2019-01-24T05:37:27.005Z,41.07
2019-01-24T05:39:54.300Z,41.13
2019-01-24T05:42:21.551Z,41.47
2019-01-24T05:44:48.838Z,41.03
2019-01-24T05:47:16.098Z,42.20
2019-01-24T05:49:43.384Z,42.47
2019-01-24T05:52:10.907Z,41.80
2019-01-24T05:54:38.163Z,43.40
2019-01-24T05:57:05.441Z,41.67
2019-01-24T05:59:32.698Z,40.70
2019-01-24T06:02:00.156Z,43.07
2019-01-24T06:04:27.409Z,42.10
2019-01-24T06:06:54.738Z,39.77
2019-01-24T06:09:22.049Z,41.47
2019-01-24T06:11:49.557Z,42.13
2019-01-24T06:14:16.851Z,43.67
2019-01-24T06:16:44.106Z,41.50
2019-01-24T06:19:11.394Z,40.10
2019-01-24T06:21:38.650Z,39.37
2019-01-24T06:24:05.929Z,39.30
2019-01-24T06:26:33.186Z,40.30
2019-01-24T06:29:02.899Z,42.00
2019-01-24T06:31:29.469Z,42.60
2019-01-24T06:33:56.729Z,43.20
2019-01-24T06:36:24.012Z,41.67
2019-01-24T06:38:51.548Z,37.67
2019-01-24T06:41:19.078Z,37.70
2019-01-24T06:43:46.326Z,41.77
2019-01-24T06:46:13.607Z,39.47
2019-01-24T06:48:40.974Z,41.73
2019-01-24T06:51:08.506Z,41.93
2019-01-24T06:53:36.014Z,39.50
2019-01-24T06:56:03.561Z,35.43
2019-01-24T06:58:30.830Z,41.30
2019-01-24T07:00:58.329Z,40.10
2019-01-24T07:03:25.616Z,41.07
2019-01-24T07:05:55.529Z,36.13
2019-01-24T07:08:21.942Z,38.07
2019-01-24T07:10:49.442Z,40.77
2019-01-24T07:13:16.726Z,41.73
2019-01-24T07:15:43.981Z,41.43
2019-01-24T07:18:11.348Z,40.07
2019-01-24T07:20:38.849Z,42.67
2019-01-24T07:23:06.422Z,38.80
2019-01-24T07:25:33.954Z,40.37
2019-01-24T07:28:01.603Z,38.63
2019-01-24T07:30:28.882Z,36.13
2019-01-24T07:32:56.154Z,38.87
2019-01-24T07:35:23.443Z,39.57
2019-01-24T07:37:50.947Z,38.07
2019-01-24T07:40:18.968Z,37.30
2019-01-24T07:42:46.394Z,35.80
2019-01-24T07:45:15.214Z,37.30
2019-01-24T07:47:42.569Z,42.90
2019-01-24T07:50:11.203Z,39.50
2019-01-24T07:52:38.486Z,40.80
2019-01-24T07:55:06.805Z,40.83
2019-01-24T07:57:34.090Z,42.37
2019-01-24T08:00:01.341Z,38.73
2019-01-24T08:02:28.646Z,41.87
2019-01-24T08:04:55.897Z,40.57
2019-01-24T08:07:23.189Z,40.63
2019-01-24T08:09:50.694Z,41.93
2019-01-24T08:12:17.946Z,37.90
2019-01-24T08:14:45.489Z,39.53
2019-01-24T08:17:12.781Z,39.97
2019-01-24T08:19:40.296Z,38.67
2019-01-24T08:22:07.548Z,37.60
2019-01-24T08:24:34.896Z,38.77
2019-01-24T08:27:02.140Z,36.40
2019-01-24T08:29:29.669Z,38.83
2019-01-24T08:31:56.925Z,40.90
2019-01-24T08:34:24.458Z,36.10
2019-01-24T08:36:51.738Z,37.83
2019-01-24T08:39:19.018Z,34.57
2019-01-24T08:41:46.271Z,39.13
2019-01-24T08:44:13.557Z,37.70
2019-01-24T08:46:40.804Z,36.13
2019-01-24T08:49:08.086Z,36.83
2019-01-24T08:51:35.337Z,37.70
2019-01-24T08:54:02.616Z,36.97
2019-01-24T08:56:29.875Z,33.33
2019-01-24T08:58:57.158Z,38.70
2019-01-24T09:01:24.433Z,35.90
2019-01-24T09:03:51.958Z,36.10
2019-01-24T09:06:22.649Z,33.97
2019-01-24T09:08:48.218Z,37.17
2019-01-24T09:11:15.573Z,35.30
2019-01-24T09:13:43.078Z,33.40
2019-01-24T09:16:10.604Z,32.33
2019-01-24T09:18:37.867Z,31.30
2019-01-24T09:21:05.134Z,29.10
2019-01-24T09:23:32.643Z,31.30
2019-01-24T09:25:59.923Z,34.07
2019-01-24T09:28:27.208Z,31.90
2019-01-24T09:30:54.718Z,30.10
2019-01-24T09:33:22.260Z,30.77
2019-01-24T09:35:49.509Z,31.40
2019-01-24T09:38:16.785Z,33.20
2019-01-24T09:40:44.303Z,30.73
2019-01-24T09:43:11.570Z,28.17
2019-01-24T09:45:38.825Z,31.87
2019-01-24T09:48:07.150Z,30.10
2019-01-24T09:50:34.686Z,31.40
2019-01-24T09:53:02.051Z,33.17
2019-01-24T09:55:29.558Z,28.87
2019-01-24T09:57:57.054Z,28.67
2019-01-24T10:00:25.869Z,29.23
2019-01-24T10:02:53.269Z,30.27
2019-01-24T10:05:20.546Z,29.90
2019-01-24T10:07:47.865Z,36.13
2019-01-24T10:10:16.683Z,32.87
2019-01-24T10:12:44.445Z,33.83
2019-01-24T10:15:12.808Z,37.60
2019-01-24T10:17:40.058Z,35.57
2019-01-24T10:20:11.749Z,32.07
2019-01-24T10:22:39.106Z,31.37
2019-01-24T10:25:13.678Z,30.10
2019-01-24T10:27:41.178Z,29.77
2019-01-24T10:30:10.263Z,30.13
2019-01-24T10:32:37.518Z,27.80
2019-01-24T10:35:05.070Z,27.97
2019-01-24T10:37:32.823Z,27.20
2019-01-24T10:40:00.280Z,28.73
2019-01-24T10:42:27.999Z,30.50
2019-01-24T10:44:55.281Z,29.23
2019-01-24T10:47:22.636Z,27.90
2019-01-24T10:49:49.886Z,25.60
2019-01-24T10:52:18.700Z,25.93
2019-01-24T10:54:46.206Z,26.30
2019-01-24T10:57:13.479Z,25.03
2019-01-24T10:59:41.018Z,29.33
2019-01-24T11:02:08.334Z,26.23
2019-01-24T11:04:35.618Z,25.77
2019-01-24T11:07:02.942Z,28.57
2019-01-24T11:09:30.475Z,26.37
2019-01-24T11:11:57.759Z,26.37
2019-01-24T11:14:25.050Z,26.83
2019-01-24T11:16:52.554Z,28.07
2019-01-24T11:19:19.803Z,25.20
2019-01-24T11:21:47.334Z,26.83
2019-01-24T11:24:14.587Z,26.47
2019-01-24T11:26:41.867Z,27.50
2019-01-24T11:29:09.362Z,28.70
2019-01-24T11:31:36.638Z,28.17
2019-01-24T11:34:04.089Z,28.10
2019-01-24T11:36:31.342Z,27.70
2019-01-24T11:38:58.619Z,28.23
2019-01-24T11:41:25.913Z,24.50
2019-01-24T11:43:53.168Z,27.73
2019-01-24T11:46:20.670Z,25.80
2019-01-24T11:48:47.962Z,22.57
2019-01-24T11:51:15.463Z,22.63
2019-01-24T11:53:42.725Z,24.10
2019-01-24T11:56:10.086Z,25.10
2019-01-24T11:58:37.370Z,24.53
2019-01-24T12:01:04.694Z,22.20
2019-01-24T12:03:31.970Z,22.50
2019-01-24T12:05:59.226Z,21.53
2019-01-24T12:08:26.569Z,19.30
2019-01-24T12:10:53.816Z,21.57
2019-01-24T12:13:21.098Z,20.13
2019-01-24T12:15:48.608Z,22.50
2019-01-24T12:18:15.961Z,23.50
2019-01-24T12:20:43.214Z,23.33
2019-01-24T12:23:10.489Z,21.57
2019-01-24T12:25:37.738Z,20.27
2019-01-24T12:28:05.082Z,20.37
2019-01-24T12:30:33.869Z,23.33
2019-01-24T12:33:01.425Z,23.50
2019-01-24T12:35:29.098Z,25.40
2019-01-24T12:37:56.630Z,20.73
2019-01-24T12:40:24.164Z,26.60
2019-01-24T12:42:52.171Z,23.93
2019-01-24T12:45:20.698Z,23.97
2019-01-24T12:47:47.988Z,22.77
2019-01-24T12:50:16.806Z,22.67
2019-01-24T12:52:44.302Z,25.00
2019-01-24T12:55:12.133Z,21.90
2019-01-24T12:57:39.665Z,25.90
2019-01-24T13:00:14.465Z,23.63
2019-01-24T13:02:41.767Z,24.10
2019-01-24T13:05:09.881Z,21.67
2019-01-24T13:07:37.209Z,23.03
2019-01-24T13:10:06.031Z,21.03
2019-01-24T13:12:33.282Z,21.27
2019-01-24T13:15:00.564Z,23.17
2019-01-24T13:17:27.886Z,22.90
2019-01-24T13:19:55.382Z,22.83
2019-01-24T13:22:22.634Z,21.77
2019-01-24T13:24:49.910Z,22.10
2019-01-24T13:27:17.428Z,20.70
2019-01-24T13:29:44.713Z,21.13
2019-01-24T13:32:11.998Z,22.00
2019-01-24T13:34:39.519Z,23.93
2019-01-24T13:37:07.126Z,22.63
2019-01-24T13:39:34.412Z,22.50
2019-01-24T13:42:01.666Z,22.60
2019-01-24T13:44:28.947Z,21.80
2019-01-24T13:46:56.474Z,20.40
2019-01-24T13:49:23.752Z,23.17
2019-01-24T13:51:51.258Z,22.33
2019-01-24T13:54:18.547Z,22.20
2019-01-24T13:56:46.059Z,22.77
2019-01-24T13:59:13.344Z,22.07
2019-01-24T14:01:40.890Z,24.27
2019-01-24T14:04:09.965Z,23.43
2019-01-24T14:06:37.218Z,27.93
2019-01-24T14:09:06.259Z,23.33
2019-01-24T14:11:33.792Z,22.30
2019-01-24T14:14:01.306Z,24.83
2019-01-24T14:16:28.651Z,25.67
2019-01-24T14:18:56.159Z,24.27
2019-01-24T14:21:23.715Z,24.20
2019-01-24T14:23:50.970Z,24.53
2019-01-24T14:26:18.246Z,22.17
2019-01-24T14:28:45.526Z,22.83
2019-01-24T14:31:12.782Z,22.53
2019-01-24T14:33:40.057Z,22.43
2019-01-24T14:36:07.411Z,25.33
2019-01-24T14:38:36.304Z,24.90
2019-01-24T14:41:03.863Z,23.40
2019-01-24T14:43:31.397Z,23.83
2019-01-24T14:46:01.985Z,23.87
2019-01-24T14:48:29.819Z,22.50
2019-01-24T14:50:57.143Z,22.53
2019-01-24T14:53:24.437Z,23.60
2019-01-24T14:55:51.687Z,23.10
2019-01-24T14:58:18.949Z,22.00
2019-01-24T15:00:47.770Z,22.70
2019-01-24T15:03:15.314Z,20.60
2019-01-24T15:05:42.830Z,22.57
2019-01-24T15:08:10.114Z,20.80
2019-01-24T15:10:37.622Z,20.20
2019-01-24T15:13:05.074Z,23.50
2019-01-24T15:15:32.422Z,23.87
2019-01-24T15:17:59.713Z,24.50
2019-01-24T15:20:27.220Z,21.33
2019-01-24T15:22:54.469Z,22.63
2019-01-24T15:25:23.158Z,23.00
2019-01-24T15:27:50.694Z,22.90
2019-01-24T15:30:19.602Z,24.23
2019-01-24T15:32:46.863Z,22.97
2019-01-24T15:35:14.691Z,23.50
2019-01-24T15:37:41.983Z,22.53
2019-01-24T15:40:14.034Z,26.03
2019-01-24T15:42:41.353Z,24.93
2019-01-24T15:45:10.509Z,24.57
2019-01-24T15:47:37.873Z,23.00
2019-01-24T15:50:06.773Z,24.33
2019-01-24T15:52:34.224Z,24.77
2019-01-24T15:55:01.840Z,23.83
2019-01-24T15:57:29.734Z,24.63
2019-01-24T15:59:57.122Z,24.50
2019-01-24T16:02:24.441Z,24.50
2019-01-24T16:04:51.998Z,25.90
2019-01-24T16:07:19.548Z,27.17
2019-01-24T16:09:46.898Z,24.50
2019-01-24T16:12:14.343Z,25.30
2019-01-24T16:14:41.696Z,25.97
2019-01-24T16:17:08.947Z,26.80
2019-01-24T16:19:36.485Z,24.20
2019-01-24T16:22:04.222Z,27.10
2019-01-24T16:24:31.754Z,25.00
2019-01-24T16:26:59.298Z,24.93
2019-01-24T16:29:26.907Z,25.57
2019-01-24T16:31:54.154Z,24.17
2019-01-24T16:34:21.406Z,27.83
2019-01-24T16:36:49.070Z,22.10
2019-01-24T16:39:16.328Z,24.43
2019-01-24T16:41:43.852Z,24.43
2019-01-24T16:44:11.354Z,22.90
2019-01-24T16:46:38.711Z,23.23
2019-01-24T16:49:06.476Z,22.50
2019-01-24T16:51:33.733Z,25.20
2019-01-24T16:54:01.048Z,23.17
2019-01-24T16:56:28.403Z,23.20
2019-01-24T16:58:55.658Z,25.10
2019-01-24T17:01:23.209Z,23.63
2019-01-24T17:03:50.486Z,26.53
2019-01-24T17:06:17.809Z,27.23
2019-01-24T17:08:45.257Z,23.17
2019-01-24T17:11:12.534Z,24.23
2019-01-24T17:13:39.862Z,23.90
2019-01-24T17:16:07.218Z,22.87
2019-01-24T17:18:34.786Z,25.43
2019-01-24T17:21:02.158Z,24.53
2019-01-24T17:23:29.669Z,24.53
2019-01-24T17:25:56.947Z,23.67
2019-01-24T17:28:24.474Z,24.80
2019-01-24T17:30:52.011Z,26.33
2019-01-24T17:33:19.519Z,26.77
2019-01-24T17:35:46.794Z,25.53
2019-01-24T17:38:15.440Z,24.47
2019-01-24T17:40:42.856Z,24.80
2019-01-24T17:43:10.201Z,26.10
2019-01-24T17:45:37.734Z,27.30
2019-01-24T17:48:05.357Z,27.03
2019-01-24T17:50:32.636Z,27.43
2019-01-24T17:52:59.915Z,27.47
2019-01-24T17:55:28.355Z,27.07
2019-01-24T17:57:55.669Z,26.53
2019-01-24T18:00:24.237Z,28.40
2019-01-24T18:02:51.521Z,29.70
2019-01-24T18:05:18.806Z,28.20
2019-01-24T18:07:46.099Z,28.50
2019-01-24T18:10:14.953Z,29.30
2019-01-24T18:12:42.206Z,25.93
2019-01-24T18:15:11.034Z,26.27
2019-01-24T18:17:38.292Z,27.77
2019-01-24T18:20:07.077Z,27.17
2019-01-24T18:22:34.442Z,26.60
2019-01-24T18:25:01.762Z,27.80
2019-01-24T18:27:29.114Z,26.80
2019-01-24T18:29:56.415Z,25.97
2019-01-24T18:32:23.832Z,29.40
2019-01-24T18:34:51.366Z,27.37
2019-01-24T18:37:18.654Z,28.67
2019-01-24T18:39:45.909Z,30.00
2019-01-24T18:42:13.186Z,27.60
2019-01-24T18:44:40.437Z,29.20
2019-01-24T18:47:07.959Z,26.53
2019-01-24T18:49:35.210Z,30.43
2019-01-24T18:52:02.495Z,24.23
2019-01-24T18:54:29.748Z,26.70
2019-01-24T18:56:57.298Z,26.70
2019-01-24T18:59:24.638Z,26.37
2019-01-24T19:01:51.925Z,27.17
2019-01-24T19:04:19.176Z,28.00
2019-01-24T19:06:46.458Z,27.80
2019-01-24T19:09:13.779Z,28.87
2019-01-24T19:11:41.150Z,29.23
2019-01-24T19:14:08.707Z,28.20
2019-01-24T19:16:42.390Z,26.40
2019-01-24T19:19:12.249Z,27.23
2019-01-24T19:21:56.048Z,31.60
2019-01-24T19:24:46.710Z,30.77
2019-01-24T19:27:14.076Z,23.97
2019-01-24T19:29:41.972Z,28.53
2019-01-24T19:32:13.947Z,26.60
2019-01-24T19:34:41.869Z,25.90
2019-01-24T19:37:09.123Z,25.73
2019-01-24T19:39:36.418Z,27.07
2019-01-24T19:42:03.933Z,27.27
2019-01-24T19:44:31.445Z,26.53
2019-01-24T19:46:58.979Z,30.60
2019-01-24T19:49:26.221Z,28.13
2019-01-24T19:51:53.751Z,29.23
2019-01-24T19:54:21.052Z,27.50
2019-01-24T19:56:48.648Z,26.63
2019-01-24T19:59:15.930Z,26.73
2019-01-24T20:01:43.210Z,27.10
2019-01-24T20:04:10.495Z,27.30
2019-01-24T20:06:38.075Z,26.60
2019-01-24T20:09:07.278Z,29.57
2019-01-24T20:11:35.002Z,28.87
2019-01-24T20:14:02.362Z,25.73
2019-01-24T20:16:29.613Z,28.10
2019-01-24T20:18:57.154Z,25.73
2019-01-24T20:21:24.406Z,27.40
2019-01-24T20:23:51.687Z,28.57
2019-01-24T20:26:19.641Z,27.40
2019-01-24T20:28:47.054Z,27.00
2019-01-24T20:31:14.598Z,28.53
2019-01-24T20:33:41.853Z,28.30
2019-01-24T20:36:09.374Z,27.00
2019-01-24T20:38:36.937Z,27.63
2019-01-24T20:41:04.226Z,28.07
2019-01-24T20:43:35.591Z,25.23
2019-01-24T20:46:01.213Z,27.30
2019-01-24T20:48:28.529Z,26.30
2019-01-24T20:50:55.786Z,27.27
2019-01-24T20:53:23.315Z,28.17
2019-01-24T20:55:50.566Z,29.17
2019-01-24T20:58:17.833Z,29.60
2019-01-24T21:00:45.337Z,28.63
2019-01-24T21:03:12.871Z,31.57
2019-01-24T21:05:40.126Z,28.93
2019-01-24T21:08:07.646Z,27.93
2019-01-24T21:10:34.978Z,30.30
2019-01-24T21:13:02.259Z,27.00
2019-01-24T21:15:29.761Z,30.30
2019-01-24T21:17:57.294Z,30.93
2019-01-24T21:20:26.117Z,30.10
2019-01-24T21:22:53.786Z,28.40
2019-01-24T21:25:21.997Z,28.23
2019-01-24T21:27:49.590Z,31.93
2019-01-24T21:30:18.381Z,32.57
2019-01-24T21:32:45.662Z,33.27
2019-01-24T21:35:13.471Z,29.03
2019-01-24T21:37:41.018Z,33.00
2019-01-24T21:40:09.806Z,31.67
2019-01-24T21:42:37.068Z,33.40
2019-01-24T21:45:06.110Z,31.30
2019-01-24T21:47:33.610Z,31.87
2019-01-24T21:50:01.144Z,31.03
2019-01-24T21:52:28.405Z,32.37
2019-01-24T21:54:55.768Z,31.93
2019-01-24T21:57:23.053Z,29.10
2019-01-24T21:59:50.615Z,29.47
2019-01-24T22:02:17.901Z,29.33
2019-01-24T22:04:45.454Z,28.03
2019-01-24T22:07:12.979Z,29.07
2019-01-24T22:09:40.538Z,30.30
2019-01-24T22:12:08.051Z,30.50
2019-01-24T22:14:35.318Z,28.70
2019-01-24T22:17:02.575Z,28.83
2019-01-24T22:19:29.858Z,30.07
2019-01-24T22:21:57.222Z,32.50
2019-01-24T22:24:24.473Z,28.50
2019-01-24T22:26:51.833Z,25.13
2019-01-24T22:29:19.086Z,30.97
2019-01-24T22:31:46.361Z,28.20
2019-01-24T22:34:13.898Z,29.20
2019-01-24T22:36:41.178Z,31.63
2019-01-24T22:39:08.734Z,25.90
2019-01-24T22:41:36.070Z,27.37
2019-01-24T22:44:03.806Z,26.43
2019-01-24T22:46:31.093Z,31.87
2019-01-24T22:48:58.631Z,30.50
2019-01-24T22:51:25.888Z,32.30
2019-01-24T22:53:53.394Z,30.93
2019-01-24T22:56:20.662Z,31.47
2019-01-24T22:58:47.946Z,31.07
2019-01-24T23:01:20.047Z,29.23
2019-01-24T23:03:47.501Z,30.47
2019-01-24T23:06:15.062Z,30.20
2019-01-24T23:08:42.347Z,28.70
2019-01-24T23:11:09.874Z,29.07
2019-01-24T23:13:37.382Z,29.70
2019-01-24T23:16:04.986Z,26.53
2019-01-24T23:18:32.272Z,29.57
2019-01-24T23:20:59.822Z,29.77
2019-01-24T23:23:27.098Z,31.63
2019-01-24T23:25:54.418Z,28.03
2019-01-24T23:28:21.706Z,29.07
2019-01-24T23:30:48.950Z,28.03
2019-01-24T23:33:16.470Z,29.60
2019-01-24T23:35:43.822Z,27.20
2019-01-24T23:38:11.401Z,26.40
2019-01-24T23:40:38.945Z,29.53
2019-01-24T23:43:06.538Z,31.77
2019-01-24T23:45:33.789Z,30.17
2019-01-24T23:48:01.063Z,28.97
2019-01-24T23:50:28.410Z,31.73
2019-01-24T23:52:55.691Z,29.60
2019-01-24T23:55:22.970Z,31.80
2019-01-24T23:57:50.476Z,28.43
